Time;durP1;ratioP1;P1;durP2;ratioP2;P2;SDS_P1;SDS_P2;PMS_P1;PMS_P2;Temp;Humidity;BMP_temperature;BMP_pressure;BME280_temperature;BME280_humidity;BME280_pressure;Samples;Min_cycle;Max_cycle;Signal;HPM_P1;HPM_P2
2022/06/11 00:01:08;;;;;;;6.88;2.55;;;;;;;16.74;65.57;102169.81;4978956;28;20439;-48
2022/06/11 00:03:34;;;;;;;2.58;2.38;;;;;;;16.80;65.51;102173.38;4996320;28;20026;-51
2022/06/11 00:06:00;;;;;;;4.88;2.50;;;;;;;16.80;65.82;102167.97;4995665;28;20162;-48
2022/06/11 00:08:26;;;;;;;4.10;2.35;;;;;;;16.84;65.28;102169.09;5000681;28;20034;-48
2022/06/11 00:10:52;;;;;;;11.00;2.97;;;;;;;16.89;65.35;102167.25;4998336;28;20048;-48
2022/06/11 00:13:22;;;;;;;5.15;2.88;;;;;;;16.91;66.06;102167.00;4991528;28;20124;-48
2022/06/11 00:15:49;;;;;;;5.95;2.72;;;;;;;16.86;67.36;102166.94;5000145;28;20028;-49
2022/06/11 00:18:15;;;;;;;7.78;3.85;;;;;;;16.83;67.94;102168.25;4993304;28;20029;-50
2022/06/11 00:20:41;;;;;;;5.75;2.80;;;;;;;16.77;68.17;102168.47;5000545;28;20038;-48
2022/06/11 00:23:07;;;;;;;5.18;2.50;;;;;;;16.76;68.04;102164.16;4994096;28;20029;-48
2022/06/11 00:25:34;;;;;;;8.00;2.60;;;;;;;16.79;67.57;102166.34;5001904;28;20030;-48
2022/06/11 00:28:01;;;;;;;4.43;2.50;;;;;;;16.82;67.15;102168.53;4994800;28;20076;-48
2022/06/11 00:30:28;;;;;;;5.13;2.65;;;;;;;16.84;66.57;102174.50;4998545;28;20444;-48
2022/06/11 00:32:55;;;;;;;4.57;2.58;;;;;;;16.82;65.97;102163.13;4997008;28;20080;-48
2022/06/11 00:35:21;;;;;;;4.30;2.50;;;;;;;16.77;65.85;102165.78;4997774;28;20030;-49
2022/06/11 00:37:47;;;;;;;6.40;2.60;;;;;;;16.76;65.96;102166.84;4994295;28;20030;-48
2022/06/11 00:40:19;;;;;;;8.00;2.55;;;;;;;16.81;65.48;102166.88;4995094;28;20380;-49
2022/06/11 00:42:45;;;;;;;8.57;3.03;;;;;;;16.84;65.38;102163.66;4994509;28;20053;-48
2022/06/11 00:45:25;;;;;;;4.80;2.80;;;;;;;16.87;65.21;102158.56;4996534;28;20026;-50
2022/06/11 00:47:57;;;;;;;6.50;2.83;;;;;;;16.89;65.10;102158.31;4997308;28;20112;-48
2022/06/11 00:50:37;;;;;;;5.57;2.67;;;;;;;16.86;65.38;102156.94;4995990;28;20034;-48
2022/06/11 00:53:11;;;;;;;7.13;2.92;;;;;;;16.87;65.48;102158.56;4997850;28;20087;-48
2022/06/11 00:55:39;;;;;;;9.63;3.00;;;;;;;16.90;64.98;102151.84;4997314;28;20030;-48
2022/06/11 00:58:13;;;;;;;5.22;2.88;;;;;;;16.92;65.04;102155.09;4999900;28;20133;-48
2022/06/11 01:00:43;;;;;;;5.10;2.72;;;;;;;16.95;64.83;102153.78;4992016;28;20088;-48
2022/06/11 01:03:11;;;;;;;5.32;2.60;;;;;;;16.96;64.69;102148.09;4995255;28;20102;-48
2022/06/11 01:05:39;;;;;;;3.55;2.50;;;;;;;17.01;64.66;102142.72;4991423;28;20424;-48
2022/06/11 01:08:25;;;;;;;5.22;2.70;;;;;;;17.03;64.47;102147.88;5001982;28;20512;-48
2022/06/11 01:11:19;;;;;;;4.55;2.83;;;;;;;16.98;64.53;102147.84;4994937;28;20065;-49
2022/06/11 01:14:04;;;;;;;3.53;2.72;;;;;;;17.04;64.03;102147.63;4995681;28;20066;-49
2022/06/11 01:16:39;;;;;;;10.05;3.08;;;;;;;17.00;64.01;102146.50;5002128;28;20241;-48
2022/06/11 01:19:27;;;;;;;5.25;3.22;;;;;;;17.02;63.68;102146.25;4996035;28;20041;-50
2022/06/11 01:22:11;;;;;;;4.90;2.60;;;;;;;17.03;63.83;102148.69;5003205;28;20030;-48
2022/06/11 01:25:04;;;;;;;4.37;2.60;;;;;;;17.03;63.82;102145.97;4999380;28;20033;-48
2022/06/11 01:27:36;;;;;;;5.25;2.58;;;;;;;17.11;63.65;102147.44;5001879;28;20360;-48
2022/06/11 01:30:23;;;;;;;6.60;2.97;;;;;;;17.06;64.19;102147.38;4996498;28;20091;-48
2022/06/11 01:33:07;;;;;;;3.20;2.60;;;;;;;17.00;64.46;102146.50;5000578;28;20072;-49
2022/06/11 01:36:18;;;;;;;4.53;2.63;;;;;;;16.93;64.62;102137.78;5001035;28;20041;-49
2022/06/11 01:38:50;;;;;;;7.22;3.08;;;;;;;16.95;64.27;102127.50;4985376;28;20120;-48
2022/06/11 01:41:46;;;;;;;7.38;3.22;;;;;;;16.97;63.91;102124.53;4996177;28;20057;-48
2022/06/11 01:44:18;;;;;;;6.68;3.00;;;;;;;16.91;64.50;102120.97;4993967;28;20454;-49
2022/06/11 01:46:47;;;;;;;8.18;3.42;;;;;;;16.91;64.37;102127.22;4990365;28;20118;-52
2022/06/11 01:49:21;;;;;;;5.72;2.75;;;;;;;16.87;64.76;102127.97;5002363;28;20038;-48
2022/06/11 01:52:08;;;;;;;5.93;2.88;;;;;;;16.77;65.02;102126.00;4993449;28;20476;-48
2022/06/11 01:55:01;;;;;;;7.35;3.38;;;;;;;16.74;65.16;102125.69;4995414;28;20037;-49
2022/06/11 01:57:37;;;;;;;7.35;3.47;;;;;;;16.77;64.77;102130.59;4993833;28;20128;-50
2022/06/11 02:00:13;;;;;;;5.63;2.63;;;;;;;16.82;64.39;102128.75;4998088;28;20116;-51
2022/06/11 02:03:07;;;;;;;8.02;2.92;;;;;;;16.78;64.71;102132.22;4994923;28;20022;-49
2022/06/11 02:05:50;;;;;;;9.05;3.60;;;;;;;16.74;64.52;102133.81;4993077;28;20034;-51
2022/06/11 02:08:40;;;;;;;5.72;2.70;;;;;;;16.72;65.16;102136.78;4996292;28;20026;-52
2022/06/11 02:11:14;;;;;;;9.15;3.63;;;;;;;16.68;65.21;102142.94;4997238;28;20038;-49
2022/06/11 02:13:47;;;;;;;7.90;3.33;;;;;;;16.66;65.54;102132.34;4991104;28;20628;-51
2022/06/11 02:16:32;;;;;;;8.45;3.38;;;;;;;16.58;66.06;102139.03;4993739;28;20045;-50
2022/06/11 02:18:59;;;;;;;;;;;;;;;16.48;66.69;102135.38;4995019;28;20030;-48
2022/06/11 02:21:32;;;;;;;12.13;4.40;;;;;;;16.56;65.92;102133.06;4995872;28;19922;-48
2022/06/11 02:24:09;;;;;;;25.17;12.75;;;;;;;16.56;65.98;102138.47;4998199;28;20146;-49
2022/06/11 02:26:42;;;;;;;24.80;13.90;;;;;;;16.55;65.85;102142.25;4993095;28;20391;-51
2022/06/11 02:29:09;;;;;;;8.93;4.70;;;;;;;16.46;66.23;102140.22;4995825;28;20030;-50
2022/06/11 02:31:42;;;;;;;6.00;2.78;;;;;;;16.38;66.43;102144.22;4996781;28;20034;-53
2022/06/11 02:34:09;;;;;;;5.85;3.20;;;;;;;16.27;66.70;102148.69;4991342;28;20030;-51
2022/06/11 02:36:58;;;;;;;4.85;3.10;;;;;;;16.10;67.98;102145.22;4993089;28;20117;-48
2022/06/11 02:39:25;;;;;;;6.20;3.65;;;;;;;15.97;67.97;102143.69;4994260;28;20031;-51
2022/06/11 02:41:51;;;;;;;6.35;2.97;;;;;;;15.81;68.61;102141.06;4996576;28;20052;-52
2022/06/11 02:44:17;;;;;;;5.45;3.40;;;;;;;15.74;69.39;102146.63;4992870;28;20028;-49
2022/06/11 02:46:44;;;;;;;4.85;3.10;;;;;;;15.74;69.67;102151.19;4996080;28;20093;-48
2022/06/11 02:49:24;;;;;;;4.68;3.75;;;;;;;15.59;70.96;102149.91;4995634;28;20030;-50
2022/06/11 02:51:53;;;;;;;5.53;3.55;;;;;;;15.61;70.69;102155.06;4999249;28;20166;-50
2022/06/11 02:54:20;;;;;;;5.78;3.42;;;;;;;15.63;70.34;102159.19;4992495;28;20033;-50
2022/06/11 02:56:48;;;;;;;7.63;3.15;;;;;;;15.59;70.16;102157.19;4993047;28;20065;-48
2022/06/11 02:59:13;;;;;;;7.65;3.20;;;;;;;15.61;70.13;102155.06;4997517;28;20042;-51
2022/06/11 03:01:40;;;;;;;5.30;3.17;;;;;;;15.59;70.13;102157.19;4994980;28;20526;-50
2022/06/11 03:04:06;;;;;;;5.20;3.50;;;;;;;15.55;70.12;102164.13;4995252;28;20068;-49
2022/06/11 03:06:33;;;;;;;6.13;3.25;;;;;;;15.48;70.35;102158.91;4997297;28;20026;-50
2022/06/11 03:08:59;;;;;;;15.73;4.07;;;;;;;15.46;70.78;102162.91;4998291;28;20072;-50
2022/06/11 03:11:26;;;;;;;4.35;3.33;;;;;;;15.42;70.83;102168.78;4995783;28;20058;-49
2022/06/11 03:13:52;;;;;;;9.18;3.90;;;;;;;15.32;71.03;102168.63;4998889;28;20038;-49
2022/06/11 03:16:18;;;;;;;7.10;3.65;;;;;;;15.30;71.16;102164.56;4995702;28;20373;-49
2022/06/11 03:18:43;;;;;;;7.55;3.63;;;;;;;15.19;71.70;102174.34;4998438;28;20076;-50
2022/06/11 03:21:09;;;;;;;9.43;3.85;;;;;;;15.10;72.19;102179.34;4999138;28;20037;-48
2022/06/11 03:23:35;;;;;;;4.68;3.28;;;;;;;15.07;72.25;102179.81;4998878;28;20029;-48
2022/06/11 03:26:02;;;;;;;5.30;3.88;;;;;;;15.03;72.41;102181.34;5001889;28;20026;-51
2022/06/11 03:28:29;;;;;;;8.20;3.50;;;;;;;15.05;72.53;102183.81;4997539;28;20027;-49
2022/06/11 03:30:56;;;;;;;9.73;4.45;;;;;;;15.01;72.98;102182.66;4997254;28;20494;-49
2022/06/11 03:33:22;;;;;;;12.02;4.65;;;;;;;14.98;73.49;102183.16;4998953;28;20052;-50
2022/06/11 03:35:49;;;;;;;11.38;4.75;;;;;;;14.97;73.92;102185.03;4999760;28;20089;-51
2022/06/11 03:38:15;;;;;;;8.93;3.80;;;;;;;14.99;73.97;102187.50;4998814;28;20057;-52
2022/06/11 03:40:41;;;;;;;6.22;3.85;;;;;;;15.03;74.12;102185.94;4999771;28;20040;-49
2022/06/11 03:43:07;;;;;;;5.00;3.83;;;;;;;15.10;73.82;102187.44;5003004;28;20025;-49
2022/06/11 03:45:33;;;;;;;7.68;4.32;;;;;;;15.16;72.75;102185.66;4998848;28;20121;-51
2022/06/11 03:47:58;;;;;;;5.43;3.67;;;;;;;15.11;72.79;102191.78;5001382;28;20457;-50
2022/06/11 03:50:30;;;;;;;9.02;3.88;;;;;;;15.09;72.79;102185.00;4999164;28;20040;-49
2022/06/11 03:52:57;;;;;;;8.48;3.50;;;;;;;15.04;73.28;102184.88;5000510;28;20120;-49
2022/06/11 03:55:25;;;;;;;5.10;3.58;;;;;;;15.02;73.38;102181.59;4999373;28;20022;-52
2022/06/11 03:57:51;;;;;;;8.15;4.10;;;;;;;15.05;73.56;102181.13;4998851;28;20034;-49
2022/06/11 04:03:07;;;;;;;6.90;3.67;;;;;;;15.04;74.74;102187.56;4951238;28;20034;-48
2022/06/11 04:05:33;;;;;;;6.75;3.42;;;;;;;15.04;75.14;102182.19;4998331;28;20184;-49
2022/06/11 04:07:58;;;;;;;4.95;3.63;;;;;;;15.05;75.49;102184.63;4996277;28;20098;-50
2022/06/11 04:10:24;;;;;;;7.05;4.10;;;;;;;15.09;75.67;102188.50;4983376;28;20030;-53
2022/06/11 04:12:50;;;;;;;8.05;4.10;;;;;;;15.24;75.06;102184.41;4997940;28;20022;-49
2022/06/11 04:15:16;;;;;;;7.03;3.63;;;;;;;15.37;74.40;102187.63;4999141;28;20408;-50
2022/06/11 04:17:41;;;;;;;6.13;3.60;;;;;;;15.51;73.68;102179.19;4995616;28;20076;-52
2022/06/11 04:20:07;;;;;;;5.40;3.40;;;;;;;15.65;73.32;102177.84;4997040;28;20029;-51
2022/06/11 04:22:33;;;;;;;5.40;3.15;;;;;;;15.70;72.94;102176.03;4997790;28;20479;-52
2022/06/11 04:24:58;;;;;;;5.85;3.30;;;;;;;15.78;72.39;102174.78;4995017;28;20041;-49
2022/06/11 04:27:24;;;;;;;5.18;3.08;;;;;;;15.89;71.84;102173.88;4995729;28;20115;-48
2022/06/11 04:29:54;;;;;;;5.60;3.17;;;;;;;15.97;71.45;102175.31;4995449;28;20484;-50
2022/06/11 04:32:22;;;;;;;3.47;3.10;;;;;;;16.08;70.72;102181.69;4999488;28;20034;-50
2022/06/11 04:34:49;;;;;;;5.68;3.30;;;;;;;16.18;70.07;102181.84;4997692;28;20297;-50
2022/06/11 04:37:17;;;;;;;6.15;3.50;;;;;;;16.27;69.78;102174.91;4998667;28;20037;-51
2022/06/11 04:39:50;;;;;;;4.45;3.30;;;;;;;16.32;69.32;102174.97;4995962;28;20034;-51
2022/06/11 04:42:17;;;;;;;6.28;3.92;;;;;;;16.41;68.90;102181.56;4998380;28;20121;-48
2022/06/11 04:44:44;;;;;;;4.10;3.35;;;;;;;16.51;67.67;102173.56;4996539;28;20038;-53
2022/06/11 04:47:13;;;;;;;8.35;3.30;;;;;;;16.60;67.11;102185.59;4997346;28;20376;-48
2022/06/11 04:49:39;;;;;;;7.20;2.97;;;;;;;16.69;66.44;102179.75;4997688;28;20029;-51
2022/06/11 04:52:05;;;;;;;7.63;3.05;;;;;;;16.76;66.04;102174.97;4999069;28;20022;-49
2022/06/11 04:54:30;;;;;;;5.00;2.88;;;;;;;16.84;65.91;102180.72;4995457;28;20026;-51
2022/06/11 04:56:56;;;;;;;7.30;3.60;;;;;;;16.95;65.80;102187.06;4997189;28;20034;-51
2022/06/11 04:59:22;;;;;;;4.63;3.47;;;;;;;17.02;65.42;102187.69;4997317;28;20033;-51
2022/06/11 05:01:47;;;;;;;4.82;3.17;;;;;;;17.09;65.41;102191.00;4997516;28;20428;-51
2022/06/11 05:04:14;;;;;;;5.70;3.20;;;;;;;17.19;65.31;102188.38;4994362;28;20460;-52
2022/06/11 05:06:42;;;;;;;5.70;3.35;;;;;;;17.30;65.46;102188.47;4995860;28;20420;-49
2022/06/11 05:09:11;;;;;;;5.88;3.10;;;;;;;17.41;65.40;102192.88;4992752;28;20038;-53
2022/06/11 05:11:37;;;;;;;4.47;3.22;;;;;;;17.51;65.21;102195.69;4994800;28;20037;-52
2022/06/11 05:14:04;;;;;;;5.85;3.75;;;;;;;17.60;65.35;102188.72;4996009;28;20069;-51
2022/06/11 05:16:29;;;;;;;5.05;3.75;;;;;;;17.70;65.18;102194.25;4995951;28;20026;-51
2022/06/11 05:18:55;;;;;;;5.35;3.53;;;;;;;17.79;65.38;102189.97;4996518;28;20040;-48
2022/06/11 05:21:22;;;;;;;5.43;3.65;;;;;;;17.93;65.51;102187.59;4995824;28;20049;-53
2022/06/11 05:23:47;;;;;;;4.65;3.28;;;;;;;18.05;65.26;102184.69;4997174;28;20061;-50
2022/06/11 05:26:17;;;;;;;6.90;3.20;;;;;;;18.25;65.17;102182.06;5001342;28;20104;-52
2022/06/11 05:28:43;;;;;;;3.83;3.28;;;;;;;18.41;64.26;102186.50;5000221;28;20153;-48
2022/06/11 05:31:09;;;;;;;4.55;3.17;;;;;;;18.55;63.73;102184.09;5001233;28;20025;-49
2022/06/11 05:33:35;;;;;;;4.50;3.20;;;;;;;18.71;63.44;102188.53;4998037;28;20527;-51
2022/06/11 05:36:01;;;;;;;5.47;3.40;;;;;;;18.83;62.90;102184.72;4997036;28;20021;-52
2022/06/11 05:38:28;;;;;;;6.38;3.60;;;;;;;18.91;63.08;102185.03;4993915;28;20179;-49
2022/06/11 05:40:55;;;;;;;5.38;3.28;;;;;;;18.94;62.46;102187.22;4998536;28;20029;-52
2022/06/11 05:43:21;;;;;;;9.10;3.28;;;;;;;19.01;62.15;102181.50;4995321;28;20026;-49
2022/06/11 05:45:52;;;;;;;4.57;3.25;;;;;;;19.07;61.24;102182.34;4995975;28;20531;-52
2022/06/11 05:48:21;;;;;;;4.38;3.50;;;;;;;19.11;61.02;102183.44;4995598;28;20632;-48
2022/06/11 05:50:50;;;;;;;6.25;3.33;;;;;;;19.13;60.86;102190.22;4996371;28;20029;-51
2022/06/11 05:53:19;;;;;;;5.45;3.25;;;;;;;19.13;61.62;102189.41;4995303;28;20434;-51
2022/06/11 05:55:46;;;;;;;5.35;3.58;;;;;;;19.13;61.66;102190.22;4995658;28;20322;-50
2022/06/11 05:58:20;;;;;;;4.32;3.40;;;;;;;19.05;62.00;102179.09;4995685;28;20080;-50
2022/06/11 06:00:46;;;;;;;4.57;3.78;;;;;;;19.04;62.48;102185.59;4997585;28;20037;-51
2022/06/11 06:03:12;;;;;;;4.30;3.20;;;;;;;19.05;62.98;102188.06;4995333;28;20580;-51
2022/06/11 06:05:39;;;;;;;6.85;3.17;;;;;;;19.16;62.46;102189.69;4996640;28;20112;-51
2022/06/11 06:08:06;;;;;;;5.03;3.10;;;;;;;19.32;61.76;102188.59;4999189;28;20105;-49
2022/06/11 06:10:32;;;;;;;6.78;3.58;;;;;;;19.46;60.76;102188.88;4994474;28;20037;-51
2022/06/11 06:12:58;;;;;;;7.82;3.42;;;;;;;19.60;59.92;102190.00;4998316;28;20387;-51
2022/06/11 06:15:27;;;;;;;6.53;3.58;;;;;;;19.74;59.49;102194.84;4997913;28;20042;-51
2022/06/11 06:17:53;;;;;;;6.32;3.83;;;;;;;19.91;59.78;102189.91;4997233;28;20026;-51
2022/06/11 06:20:21;;;;;;;3.55;2.90;;;;;;;20.03;59.22;102185.00;4993493;28;20164;-49
2022/06/11 06:22:47;;;;;;;6.45;3.20;;;;;;;20.14;59.01;102193.94;4997398;28;20029;-52
2022/06/11 06:25:19;;;;;;;4.05;3.05;;;;;;;20.24;58.54;102188.47;4998348;28;20403;-51
2022/06/11 06:27:45;;;;;;;5.07;3.35;;;;;;;20.40;58.41;102181.03;4996218;28;20496;-52
2022/06/11 06:30:11;;;;;;;4.07;2.65;;;;;;;20.50;57.09;102189.22;5000065;28;20022;-49
2022/06/11 06:32:37;;;;;;;4.63;3.40;;;;;;;20.68;56.44;102188.56;4994132;28;20163;-52
2022/06/11 06:35:03;;;;;;;6.97;2.70;;;;;;;20.86;55.69;102189.00;4995392;28;20038;-52
2022/06/11 06:37:28;;;;;;;5.03;2.88;;;;;;;20.98;54.37;102192.19;4996670;28;20030;-51
2022/06/11 06:39:54;;;;;;;3.63;2.65;;;;;;;21.18;53.93;102188.50;4999642;28;20029;-51
2022/06/11 06:42:19;;;;;;;4.72;2.50;;;;;;;21.39;53.63;102190.81;4995556;28;20081;-50
2022/06/11 06:44:46;;;;;;;7.97;2.80;;;;;;;21.55;53.01;102188.78;4995502;28;21291;-52
2022/06/11 06:47:11;;;;;;;4.35;2.50;;;;;;;21.70;51.62;102183.16;4995893;28;20404;-49
2022/06/11 06:49:37;;;;;;;5.03;2.90;;;;;;;21.87;51.66;102177.25;4995310;28;20030;-49
2022/06/11 06:52:03;;;;;;;5.07;2.55;;;;;;;21.95;50.58;102182.09;5003223;28;20033;-52
2022/06/11 06:54:28;;;;;;;4.03;2.47;;;;;;;22.14;50.44;102176.72;5001528;28;20026;-53
2022/06/11 06:56:54;;;;;;;5.82;2.40;;;;;;;22.26;49.81;102176.28;5001460;28;20104;-48
2022/06/11 06:59:19;;;;;;;4.32;2.70;;;;;;;22.35;49.81;102177.25;4999276;28;20037;-51
2022/06/11 07:01:45;;;;;;;9.95;2.80;;;;;;;22.44;50.18;102158.28;5000359;28;20026;-51
2022/06/11 07:04:12;;;;;;;5.28;2.15;;;;;;;22.46;49.67;102178.78;4998853;28;20022;-53
2022/06/11 07:06:37;;;;;;;4.00;2.75;;;;;;;22.39;49.57;102175.56;5000523;28;20030;-50
2022/06/11 07:09:04;;;;;;;6.35;2.10;;;;;;;22.41;49.24;102175.28;5000947;28;20018;-53
2022/06/11 07:11:30;;;;;;;7.85;2.63;;;;;;;22.47;49.14;102174.13;5003000;28;20129;-51
2022/06/11 07:13:55;;;;;;;5.05;2.53;;;;;;;22.42;49.05;102168.69;4996554;28;20608;-51
2022/06/11 07:16:28;;;;;;;4.57;2.30;;;;;;;22.35;49.22;102168.25;4999266;28;20389;-51
2022/06/11 07:18:59;;;;;;;4.63;2.40;;;;;;;22.47;49.19;102174.13;5003920;28;20034;-53
2022/06/11 07:21:37;;;;;;;5.43;2.38;;;;;;;22.44;48.92;102170.06;5000783;28;20026;-53
2022/06/11 07:24:14;;;;;;;5.28;2.30;;;;;;;22.40;48.24;102174.47;4999941;28;20028;-53
2022/06/11 07:26:43;;;;;;;5.15;2.05;;;;;;;22.35;48.71;102188.19;5003951;28;20037;-53
2022/06/11 07:29:17;;;;;;;6.05;2.90;;;;;;;22.30;48.53;102180.06;5004226;28;20432;-52
2022/06/11 07:31:44;;;;;;;7.03;2.47;;;;;;;;;;5000834;28;20037;-51
2022/06/11 07:34:12;;;;;;;4.00;2.13;;;;;;;22.46;49.57;102176.03;5003491;28;20057;-50
2022/06/11 07:36:38;;;;;;;6.55;2.13;;;;;;;22.51;49.76;102184.16;5000217;28;20026;-52
2022/06/11 07:39:03;;;;;;;4.20;2.33;;;;;;;22.43;49.00;102182.06;5004015;28;20022;-54
2022/06/11 07:41:29;;;;;;;4.20;2.42;;;;;;;22.45;49.04;102181.78;5004560;28;20075;-52
2022/06/11 07:43:55;;;;;;;5.32;2.00;;;;;;;22.44;48.83;102178.25;4999321;28;20041;-53
2022/06/11 07:46:21;;;;;;;3.33;2.47;;;;;;;22.41;49.34;102176.09;5001323;28;20380;-51
2022/06/11 07:48:48;;;;;;;5.38;2.05;;;;;;;22.42;49.67;102182.34;5000876;28;20030;-49
2022/06/11 07:51:18;;;;;;;3.42;2.15;;;;;;;22.29;49.86;102181.19;5002892;28;20040;-52
2022/06/11 07:53:46;;;;;;;6.00;2.58;;;;;;;22.28;50.47;102177.63;5002474;28;20026;-51
2022/06/11 07:56:13;;;;;;;5.63;2.17;;;;;;;22.20;51.02;102180.19;4997298;28;20022;-51
2022/06/11 07:58:38;;;;;;;3.45;2.47;;;;;;;22.21;51.12;102179.88;5003726;28;20025;-53
2022/06/11 08:01:05;;;;;;;7.03;2.63;;;;;;;22.25;51.43;102183.66;4999724;28;20033;-50
2022/06/11 08:03:32;;;;;;;3.17;2.25;;;;;;;22.27;51.46;102173.28;4996262;28;20522;-52
2022/06/11 08:05:59;;;;;;;4.40;2.20;;;;;;;22.16;51.02;102179.16;5000252;28;20095;-53
2022/06/11 08:08:26;;;;;;;6.47;2.10;;;;;;;22.13;51.44;102180.53;4996454;28;21005;-52
2022/06/11 08:10:51;;;;;;;4.80;2.88;;;;;;;22.14;51.87;102184.09;5002262;28;20037;-51
2022/06/11 08:13:18;;;;;;;6.45;2.85;;;;;;;22.12;52.12;102183.56;4995048;28;21098;-50
2022/06/11 08:15:47;;;;;;;5.32;2.45;;;;;;;22.05;52.39;102183.09;5001500;28;20084;-53
2022/06/11 08:18:13;;;;;;;6.72;2.65;;;;;;;22.10;52.29;102185.78;4994748;28;20053;-53
2022/06/11 08:20:39;;;;;;;6.10;2.42;;;;;;;22.10;51.71;102192.03;5000106;28;20033;-52
2022/06/11 08:23:06;;;;;;;5.90;2.42;;;;;;;22.12;51.94;102183.56;4998929;28;20021;-52
2022/06/11 08:25:32;;;;;;;4.25;2.30;;;;;;;22.21;51.81;102179.88;5001922;28;20030;-53
2022/06/11 08:27:58;;;;;;;4.45;2.53;;;;;;;22.27;51.50;102188.84;4998794;28;20026;-51
2022/06/11 08:30:26;;;;;;;5.63;2.63;;;;;;;22.36;51.15;102183.53;4998929;28;20154;-50
2022/06/11 08:32:52;;;;;;;5.75;2.47;;;;;;;22.43;50.54;102190.25;4998975;28;20030;-52
2022/06/11 08:35:23;;;;;;;5.90;2.05;;;;;;;22.45;49.80;102181.78;4997565;28;20152;-53
2022/06/11 08:37:49;;;;;;;5.60;2.20;;;;;;;22.46;49.69;102189.69;4994070;28;20023;-52
2022/06/11 08:40:31;;;;;;;5.78;2.30;;;;;;;22.48;49.73;102186.66;5002299;28;20038;-53
2022/06/11 08:43:19;;;;;;;5.82;2.80;;;;;;;22.54;49.68;102193.66;4996035;28;20521;-55
2022/06/11 08:46:02;;;;;;;3.92;2.35;;;;;;;22.49;49.11;102194.56;4987981;28;20261;-54
2022/06/11 08:49:17;;;;;;;6.05;2.10;;;;;;;22.53;48.65;102190.13;4999501;28;20059;-52
2022/06/11 08:51:47;;;;;;;7.70;2.67;;;;;;;22.52;49.00;102191.25;4966302;28;20070;-50
2022/06/11 08:54:39;;;;;;;4.05;2.40;;;;;;;22.52;48.83;102188.50;5000342;28;20037;-51
2022/06/11 08:57:20;;;;;;;4.43;2.42;;;;;;;22.49;49.15;102194.56;4988408;28;20037;-49
2022/06/11 09:00:12;;;;;;;4.72;1.95;;;;;;;22.47;48.94;102199.50;5000232;28;20037;-47
2022/06/11 09:02:41;;;;;;;6.35;2.08;;;;;;;22.56;49.36;102205.13;4999790;28;20026;-49
2022/06/11 09:05:18;;;;;;;4.40;2.38;;;;;;;22.60;50.20;102204.22;4991777;28;20029;-51
2022/06/11 09:07:50;;;;;;;4.22;2.33;;;;;;;22.71;49.99;102193.16;5002496;28;20026;-50
2022/06/11 09:10:50;;;;;;;3.58;2.20;;;;;;;22.71;50.88;102195.91;4999120;28;20387;-49
2022/06/11 09:13:43;;;;;;;6.57;2.53;;;;;;;22.74;50.16;102192.56;4991886;28;20034;-49
2022/06/11 09:16:30;;;;;;;5.72;2.47;;;;;;;22.70;50.20;102205.22;4999199;28;20261;-51
2022/06/11 09:19:10;;;;;;;7.68;2.55;;;;;;;22.56;50.37;102200.47;4996799;28;20037;-51
2022/06/11 09:22:01;;;;;;;7.13;2.63;;;;;;;22.70;50.22;102192.38;4999113;28;20077;-48
2022/06/11 09:24:38;;;;;;;5.93;2.70;;;;;;;22.65;49.95;102197.91;4995823;28;20032;-50
2022/06/11 09:27:12;;;;;;;5.38;2.22;;;;;;;22.66;50.17;102191.34;4998732;28;20156;-47
2022/06/11 09:29:41;;;;;;;4.32;1.83;;;;;;;22.76;50.53;102190.34;4997718;28;20484;-50
2022/06/11 09:32:28;;;;;;;3.40;2.10;;;;;;;22.76;50.41;102193.09;4996483;28;20037;-49
2022/06/11 09:35:02;;;;;;;4.95;2.38;;;;;;;22.87;50.70;102195.41;4997141;28;20396;-50
2022/06/11 09:37:44;;;;;;;2.67;2.30;;;;;;;22.94;50.89;102192.31;5000257;28;20088;-50
2022/06/11 09:40:25;;;;;;;3.50;2.53;;;;;;;22.99;51.14;102189.50;4996032;28;20029;-50
2022/06/11 09:43:25;;;;;;;3.38;2.45;;;;;;;22.92;50.40;102186.31;4999166;28;20486;-50
2022/06/11 09:46:07;;;;;;;3.33;2.20;;;;;;;22.87;50.17;102189.97;4996010;28;20044;-51
2022/06/11 09:48:48;;;;;;;4.15;2.47;;;;;;;22.94;50.37;102189.56;4998354;28;20034;-48
2022/06/11 09:51:32;;;;;;;4.97;2.40;;;;;;;22.88;50.93;102186.13;4994174;28;20042;-51
2022/06/11 09:54:17;;;;;;;5.07;2.42;;;;;;;22.84;50.01;102185.09;4994230;28;20026;-53
2022/06/11 09:57:08;;;;;;;7.53;2.80;;;;;;;22.86;50.10;102187.53;4999303;28;20116;-51
2022/06/11 09:59:36;;;;;;;4.50;2.15;;;;;;;22.81;50.28;102196.59;4995959;28;20096;-49
2022/06/11 10:02:29;;;;;;;9.00;2.55;;;;;;;22.90;50.18;102188.56;4996806;28;20560;-53
2022/06/11 10:05:00;;;;;;;5.18;2.80;;;;;;;22.95;49.93;102188.47;4994944;28;20105;-51
2022/06/11 10:07:32;;;;;;;4.30;2.22;;;;;;;23.02;50.17;102180.72;4997723;28;20037;-53
2022/06/11 10:10:14;;;;;;;5.93;2.45;;;;;;;23.08;49.74;102184.97;4996115;28;20036;-51
2022/06/11 10:12:46;;;;;;;5.13;2.92;;;;;;;23.05;49.81;102180.13;4997635;28;20027;-51
2022/06/11 10:15:26;;;;;;;5.25;2.72;;;;;;;23.07;50.13;102186.09;4994244;28;20034;-52
2022/06/11 10:18:10;;;;;;;6.35;2.72;;;;;;;23.13;50.08;102186.81;4998681;28;20040;-49
2022/06/11 10:20:45;;;;;;;5.18;2.28;;;;;;;23.22;49.58;102185.03;4993073;28;20044;-50
2022/06/11 10:23:45;;;;;;;4.15;2.15;;;;;;;23.17;49.65;102183.22;4994782;28;20298;-52
2022/06/11 10:26:35;;;;;;;5.03;2.55;;;;;;;23.36;49.68;102176.88;4994750;28;20025;-50
2022/06/11 10:29:13;;;;;;;4.78;2.30;;;;;;;23.48;49.45;102175.28;4994426;28;20041;-51
2022/06/11 10:32:16;;;;;;;5.30;2.65;;;;;;;23.63;48.99;102173.41;4999283;28;20030;-51
2022/06/11 10:34:49;;;;;;;4.22;1.90;;;;;;;23.86;48.25;102179.81;4959851;28;20188;-50
2022/06/11 10:37:30;;;;;;;3.10;2.03;;;;;;;23.94;47.98;102176.41;5001131;28;20034;-53
2022/06/11 10:40:07;;;;;;;4.50;1.70;;;;;;;24.00;47.45;102177.91;4996879;28;20034;-52
2022/06/11 10:42:43;;;;;;;4.75;1.90;;;;;;;24.00;46.94;102181.47;4995288;28;20033;-53
2022/06/11 10:45:14;;;;;;;5.72;2.15;;;;;;;24.07;46.48;102175.59;4997670;28;20054;-53
2022/06/11 10:47:44;;;;;;;3.78;2.03;;;;;;;24.07;46.56;102167.38;4999933;28;20590;-51
2022/06/11 10:50:11;;;;;;;5.57;2.22;;;;;;;24.13;46.64;102171.63;4992866;28;20117;-50
2022/06/11 10:52:40;;;;;;;3.40;1.70;;;;;;;24.14;46.23;102162.28;4998134;28;20042;-53
2022/06/11 10:55:10;;;;;;;3.75;2.00;;;;;;;24.24;46.32;102166.75;4997792;28;20380;-51
2022/06/11 10:57:38;;;;;;;5.35;2.00;;;;;;;24.26;46.34;102159.84;4998433;28;20042;-51
2022/06/11 11:00:19;;;;;;;6.72;1.70;;;;;;;24.28;45.57;102159.56;4997335;28;20510;-52
2022/06/11 11:02:55;;;;;;;4.95;1.70;;;;;;;24.38;45.66;102151.94;4999813;28;20033;-52
2022/06/11 11:05:21;;;;;;;3.70;1.90;;;;;;;24.52;45.64;102154.66;4997988;28;20120;-50
2022/06/11 11:07:58;;;;;;;3.03;1.88;;;;;;;24.51;44.21;102150.28;4997506;28;20171;-53
2022/06/11 11:10:36;;;;;;;7.07;2.15;;;;;;;24.57;44.44;102160.00;4998712;28;20224;-52
2022/06/11 11:13:20;;;;;;;3.13;2.08;;;;;;;24.51;44.81;102152.22;4996870;28;20029;-54
2022/06/11 11:15:55;;;;;;;4.32;2.00;;;;;;;24.48;44.44;102161.06;4998400;28;20034;-53
2022/06/11 11:18:23;;;;;;;4.85;2.03;;;;;;;24.53;45.03;102152.72;4996283;28;20124;-52
2022/06/11 11:20:53;;;;;;;3.47;1.90;;;;;;;24.53;44.82;102141.75;4995049;28;20463;-53
2022/06/11 11:23:25;;;;;;;4.13;1.98;;;;;;;24.58;45.41;102142.44;4995636;28;20037;-52
2022/06/11 11:25:59;;;;;;;4.82;2.20;;;;;;;24.58;44.60;102145.19;4998230;28;20025;-52
2022/06/11 11:28:31;;;;;;;4.13;2.00;;;;;;;24.56;45.29;102146.63;4998722;28;20076;-52
2022/06/11 11:31:15;;;;;;;2.67;1.90;;;;;;;24.57;44.73;102146.31;4995197;28;20467;-51
2022/06/11 11:33:56;;;;;;;6.17;2.37;;;;;;;24.47;45.11;102143.00;4991705;28;20030;-53
2022/06/11 11:36:25;;;;;;;6.13;2.50;;;;;;;24.48;44.48;102145.44;4995162;28;20034;-53
2022/06/11 11:39:12;;;;;;;3.92;1.90;;;;;;;24.58;44.50;102138.91;4994561;28;20519;-52
2022/06/11 11:42:09;;;;;;;2.80;1.70;;;;;;;24.68;44.81;102134.00;4996357;28;20084;-52
2022/06/11 11:44:38;;;;;;;3.45;2.00;;;;;;;24.77;44.60;102136.81;4947293;28;20615;-53
2022/06/11 11:47:15;;;;;;;3.70;1.75;;;;;;;24.77;44.01;102136.00;4995046;28;20098;-54
2022/06/11 11:49:46;;;;;;;5.78;2.13;;;;;;;24.77;43.64;102127.75;4997117;28;20103;-52
2022/06/11 11:52:15;;;;;;;3.05;2.20;;;;;;;24.81;43.55;102132.34;4992188;28;20426;-51